createdAt,value
2023-05-14T00:00:42.968Z,0.95
2023-05-14T00:03:44.783Z,1.15
2023-05-14T00:06:46.704Z,1.25
2023-05-14T00:09:48.410Z,1.30
2023-05-14T00:12:51.207Z,1.33
2023-05-14T00:15:54.321Z,1.13
2023-05-14T00:18:56.239Z,1.10
2023-05-14T00:21:58.018Z,1.08
2023-05-14T00:24:59.815Z,1.20
2023-05-14T00:28:01.573Z,1.02
2023-05-14T00:31:05.359Z,1.30
2023-05-14T00:34:07.084Z,1.13
2023-05-14T00:37:08.902Z,1.08
2023-05-14T00:40:12.927Z,1.13
2023-05-14T00:43:14.877Z,0.93
2023-05-14T00:46:17.978Z,1.25
2023-05-14T00:49:20.050Z,1.30
2023-05-14T00:52:22.241Z,1.15
2023-05-14T00:55:24.093Z,1.10
2023-05-14T00:58:26.284Z,1.23
2023-05-14T01:01:30.036Z,1.10
2023-05-14T01:04:32.345Z,1.10
2023-05-14T01:07:40.911Z,1.30
2023-05-14T01:10:49.830Z,0.80
2023-05-14T01:14:05.012Z,0.80
2023-05-14T01:17:11.078Z,1.00
2023-05-14T01:20:13.195Z,0.90
2023-05-14T01:23:16.168Z,1.00
2023-05-14T01:26:18.579Z,0.98
2023-05-14T01:29:24.033Z,1.40
2023-05-14T01:32:28.370Z,1.00
2023-05-14T01:35:30.706Z,1.20
2023-05-14T01:38:35.790Z,1.00
2023-05-14T01:41:39.321Z,1.17
2023-05-14T01:44:41.830Z,1.20
2023-05-14T01:47:43.546Z,1.30
2023-05-14T01:50:45.607Z,1.20
2023-05-14T01:53:48.901Z,0.98
2023-05-14T01:56:51.157Z,1.05
2023-05-14T01:59:52.781Z,1.25
2023-05-14T02:02:54.462Z,1.30
2023-05-14T02:05:58.350Z,1.13
2023-05-14T02:09:01.432Z,1.30
2023-05-14T02:12:03.283Z,1.33
2023-05-14T02:15:06.091Z,1.38
2023-05-14T02:18:07.877Z,1.30
2023-05-14T02:21:09.607Z,1.30
2023-05-14T02:24:12.703Z,1.35
2023-05-14T02:27:14.392Z,1.40
2023-05-14T02:30:16.492Z,1.27
2023-05-14T02:33:18.930Z,1.40
2023-05-14T02:36:20.814Z,1.33
2023-05-14T02:39:24.176Z,1.35
2023-05-14T02:42:25.907Z,1.48
2023-05-14T02:45:27.716Z,1.40
2023-05-14T02:48:29.424Z,1.80
2023-05-14T02:51:31.316Z,1.60
2023-05-14T02:54:34.526Z,1.38
2023-05-14T02:57:36.350Z,1.40
2023-05-14T03:00:38.048Z,1.52
2023-05-14T03:03:40.529Z,1.45
2023-05-14T03:06:42.714Z,1.20
2023-05-14T03:09:45.745Z,1.77
2023-05-14T03:12:47.642Z,1.60
2023-05-14T03:15:49.456Z,1.38
2023-05-14T03:18:51.179Z,1.20
2023-05-14T03:21:53.020Z,1.73
2023-05-14T03:24:56.006Z,2.20
2023-05-14T03:27:57.834Z,1.70
2023-05-14T03:30:59.780Z,1.90
2023-05-14T03:34:01.541Z,1.75
2023-05-14T03:37:03.789Z,2.00
2023-05-14T03:40:08.267Z,1.83
2023-05-14T03:43:11.700Z,1.98
2023-05-14T03:46:13.409Z,2.03
2023-05-14T03:49:15.596Z,2.22
2023-05-14T03:52:17.352Z,1.65
2023-05-14T03:55:21.438Z,2.03
2023-05-14T03:58:23.132Z,1.55
2023-05-14T04:01:24.953Z,1.92
2023-05-14T04:04:26.700Z,2.33
2023-05-14T04:07:28.364Z,2.10
2023-05-14T04:10:32.118Z,2.60
2023-05-14T04:13:35.466Z,2.13
2023-05-14T04:16:37.548Z,2.20
2023-05-14T04:19:40.454Z,7.45
2023-05-14T04:22:42.153Z,5.82
2023-05-14T04:25:45.380Z,3.47
2023-05-14T04:28:47.025Z,3.90
2023-05-14T04:31:49.553Z,2.65
2023-05-14T04:34:51.316Z,2.47
2023-05-14T04:37:53.070Z,2.20
2023-05-14T04:40:56.932Z,4.35
2023-05-14T04:44:01.844Z,2.70
2023-05-14T04:50:06.549Z,1.90
2023-05-14T04:53:08.247Z,2.30
2023-05-14T04:56:11.305Z,2.35
2023-05-14T04:59:13.016Z,2.40
2023-05-14T05:02:14.834Z,1.98
2023-05-14T05:05:16.448Z,2.33
2023-05-14T05:08:18.264Z,2.25
2023-05-14T05:11:21.380Z,2.17
2023-05-14T05:14:23.054Z,2.28
2023-05-14T05:17:24.933Z,2.45
2023-05-14T05:20:28.342Z,2.20
2023-05-14T05:23:30.043Z,2.75
2023-05-14T05:26:33.257Z,3.03
2023-05-14T05:29:35.374Z,2.63
2023-05-14T05:32:37.455Z,2.50
2023-05-14T05:35:39.324Z,2.30
2023-05-14T05:38:40.924Z,2.03
2023-05-14T05:41:44.337Z,2.22
2023-05-14T05:44:45.977Z,2.33
2023-05-14T05:47:47.785Z,2.42
2023-05-14T05:50:50.258Z,2.08
2023-05-14T05:53:52.038Z,2.63
2023-05-14T05:56:55.523Z,2.08
2023-05-14T05:59:58.025Z,2.15
2023-05-14T06:02:59.837Z,2.22
2023-05-14T06:06:01.668Z,2.20
2023-05-14T06:09:04.699Z,2.08
2023-05-14T06:12:08.831Z,1.83
2023-05-14T06:15:12.095Z,1.98
2023-05-14T06:18:13.789Z,1.65
2023-05-14T06:21:15.685Z,1.70
2023-05-14T06:24:17.382Z,1.80
2023-05-14T06:27:20.424Z,1.70
2023-05-14T06:30:22.480Z,1.70
2023-05-14T06:33:30.717Z,2.20
2023-05-14T06:36:32.533Z,1.73
2023-05-14T06:39:34.274Z,1.63
2023-05-14T06:42:37.391Z,1.58
2023-05-14T06:45:39.971Z,1.60
2023-05-14T06:48:41.751Z,1.77
2023-05-14T06:51:43.554Z,1.48
2023-05-14T06:54:45.448Z,1.52
2023-05-14T06:57:48.625Z,1.73
2023-05-14T07:00:50.340Z,1.70
2023-05-14T07:03:52.036Z,1.55
2023-05-14T07:06:53.726Z,1.95
2023-05-14T07:09:55.464Z,1.80
2023-05-14T07:12:58.640Z,1.58
2023-05-14T07:16:00.486Z,1.75
2023-05-14T07:19:02.176Z,1.52
2023-05-14T07:22:04.321Z,1.65
2023-05-14T07:25:06.672Z,1.60
2023-05-14T07:28:09.887Z,2.10
2023-05-14T07:31:11.610Z,1.65
2023-05-14T07:34:13.556Z,1.65
2023-05-14T07:37:15.262Z,1.75
2023-05-14T07:40:17.564Z,1.90
2023-05-14T07:43:20.666Z,1.60
2023-05-14T07:46:23.806Z,1.83
2023-05-14T07:49:25.555Z,2.10
2023-05-14T07:52:27.365Z,2.30
2023-05-14T07:55:29.220Z,1.83
2023-05-14T07:58:32.519Z,1.77
2023-05-14T08:01:34.344Z,1.70
2023-05-14T08:04:36.325Z,1.95
2023-05-14T08:07:38.283Z,1.65
2023-05-14T08:10:40.116Z,1.70
2023-05-14T08:13:43.254Z,1.70
2023-05-14T08:16:45.160Z,1.50
2023-05-14T08:19:46.972Z,1.55
2023-05-14T08:22:49.154Z,1.83
2023-05-14T08:25:51.024Z,1.73
2023-05-14T08:28:54.761Z,1.45
2023-05-14T08:31:57.287Z,1.48
2023-05-14T08:34:59.564Z,1.58
2023-05-14T08:38:01.255Z,1.50
2023-05-14T08:41:06.190Z,1.65
2023-05-14T08:44:13.130Z,1.50
2023-05-14T08:47:16.288Z,1.60
2023-05-14T08:50:22.415Z,1.42
2023-05-14T08:53:24.998Z,1.48
2023-05-14T08:56:27.031Z,1.73
2023-05-14T08:59:30.318Z,1.38
2023-05-14T09:02:32.555Z,1.67
2023-05-14T09:05:34.731Z,1.75
2023-05-14T09:08:36.638Z,1.88
2023-05-14T09:11:41.390Z,1.67
2023-05-14T09:14:44.644Z,1.90
2023-05-14T09:17:47.964Z,1.67
2023-05-14T09:20:49.924Z,1.50
2023-05-14T09:23:55.153Z,1.85
2023-05-14T09:26:58.181Z,1.92
2023-05-14T09:30:12.633Z,1.42
2023-05-14T09:33:26.517Z,1.83
2023-05-14T09:36:28.180Z,1.42
2023-05-14T09:39:30.590Z,1.83
2023-05-14T09:42:32.789Z,1.50
2023-05-14T09:45:36.410Z,2.00
2023-05-14T09:48:38.386Z,1.50
2023-05-14T09:51:40.217Z,1.60
2023-05-14T09:54:41.978Z,1.58
2023-05-14T09:58:04.243Z,1.50
2023-05-14T10:01:08.309Z,1.67
2023-05-14T10:04:11.825Z,2.00
2023-05-14T10:07:14.415Z,1.60
2023-05-14T10:10:19.531Z,1.65
2023-05-14T10:13:27.792Z,1.58
2023-05-14T10:16:34.913Z,1.80
2023-05-14T10:19:40.322Z,1.77
2023-05-14T10:22:42.242Z,2.00
2023-05-14T10:25:44.376Z,1.95
2023-05-14T10:28:46.766Z,1.58
2023-05-14T10:31:51.672Z,1.58
2023-05-14T10:34:53.882Z,1.50
2023-05-14T10:37:56.690Z,1.58
2023-05-14T10:41:02.562Z,1.65
2023-05-14T10:44:09.464Z,1.55
2023-05-14T10:47:12.748Z,1.60
2023-05-14T10:50:16.096Z,1.90
2023-05-14T10:53:18.519Z,1.23
2023-05-14T10:56:21.505Z,1.50
2023-05-14T10:59:27.162Z,1.50
2023-05-14T11:02:32.647Z,1.30
2023-05-14T11:05:37.189Z,1.30
2023-05-14T11:08:39.838Z,1.35
2023-05-14T11:11:41.957Z,1.30
2023-05-14T11:14:43.919Z,1.40
2023-05-14T11:17:48.435Z,1.30
2023-05-14T11:23:51.651Z,1.40
2023-05-14T11:26:55.693Z,1.50
2023-05-14T11:29:58.574Z,1.17
2023-05-14T11:33:02.309Z,1.20
2023-05-14T11:36:04.936Z,1.02
2023-05-14T11:39:07.889Z,1.40
2023-05-14T11:42:16.739Z,1.27
2023-05-14T11:45:26.330Z,1.42
2023-05-14T11:48:29.296Z,1.25
2023-05-14T11:51:32.026Z,1.38
2023-05-14T11:54:34.786Z,1.30
2023-05-14T11:57:36.760Z,1.20
2023-05-14T12:00:38.603Z,0.98
2023-05-14T12:03:42.412Z,1.10
2023-05-14T12:06:44.283Z,1.10
2023-05-14T12:09:49.682Z,1.30
2023-05-14T12:12:51.643Z,1.20
2023-05-14T12:15:56.155Z,1.48
2023-05-14T12:19:01.764Z,1.15
2023-05-14T12:22:03.595Z,1.10
2023-05-14T12:25:12.312Z,1.20
2023-05-14T12:28:15.888Z,1.27
2023-05-14T12:31:17.749Z,1.33
2023-05-14T12:34:20.897Z,1.48
2023-05-14T12:37:22.675Z,1.58
2023-05-14T12:40:24.694Z,1.55
2023-05-14T12:43:31.433Z,1.92
2023-05-14T12:46:34.326Z,1.50
2023-05-14T12:49:37.627Z,1.35
2023-05-14T12:52:40.104Z,1.23
2023-05-14T12:55:42.058Z,1.23
2023-05-14T12:58:44.016Z,1.17
2023-05-14T13:01:45.698Z,1.50
2023-05-14T13:04:48.741Z,1.48
2023-05-14T13:07:52.823Z,1.27
2023-05-14T13:10:55.536Z,1.58
2023-05-14T13:13:57.794Z,1.40
2023-05-14T13:16:59.682Z,1.58
2023-05-14T13:20:02.982Z,1.20
2023-05-14T13:23:04.702Z,1.30
2023-05-14T13:26:06.966Z,1.33
2023-05-14T13:29:08.707Z,1.13
2023-05-14T13:32:10.584Z,1.10
2023-05-14T13:35:13.876Z,1.40
2023-05-14T13:38:15.628Z,1.30
2023-05-14T13:41:17.306Z,1.30
2023-05-14T13:44:18.983Z,1.30
2023-05-14T13:47:20.679Z,1.40
2023-05-14T13:50:23.817Z,1.40
2023-05-14T13:53:26.302Z,1.30
2023-05-14T13:56:27.987Z,1.30
2023-05-14T13:59:29.704Z,1.30
2023-05-14T14:02:33.540Z,1.33
2023-05-14T14:05:37.578Z,1.23
2023-05-14T14:08:39.281Z,1.35
2023-05-14T14:11:41.260Z,1.00
2023-05-14T14:14:42.954Z,1.23
2023-05-14T14:17:45.008Z,1.20
2023-05-14T14:20:48.241Z,1.20
2023-05-14T14:23:49.928Z,1.00
2023-05-14T14:26:51.674Z,1.10
2023-05-14T14:29:53.416Z,1.30
2023-05-14T14:32:55.308Z,1.00
2023-05-14T14:35:58.421Z,1.20
2023-05-14T14:39:00.366Z,0.95
2023-05-14T14:42:02.103Z,1.10
2023-05-14T14:45:04.502Z,1.08
2023-05-14T14:48:26.923Z,0.95
2023-05-14T14:51:30.369Z,1.10
2023-05-14T14:54:32.049Z,1.08
2023-05-14T14:57:33.909Z,1.02
2023-05-14T15:00:35.666Z,0.93
2023-05-14T15:03:37.494Z,1.02
2023-05-14T15:06:40.869Z,1.08
2023-05-14T15:09:42.811Z,1.02
2023-05-14T15:12:45.094Z,0.90
2023-05-14T15:15:47.338Z,1.00
2023-05-14T15:18:49.105Z,0.90
2023-05-14T15:21:52.675Z,1.10
2023-05-14T15:24:54.474Z,1.00
2023-05-14T15:27:56.268Z,1.08
2023-05-14T15:30:58.159Z,1.05
2023-05-14T15:34:00.949Z,0.82
2023-05-14T15:37:04.114Z,0.90
2023-05-14T15:40:10.455Z,0.77
2023-05-14T15:43:12.385Z,0.80
2023-05-14T15:46:14.141Z,0.80
2023-05-14T15:49:15.840Z,0.73
2023-05-14T15:52:18.898Z,0.80
2023-05-14T15:55:20.892Z,0.80
2023-05-14T15:58:22.652Z,0.75
2023-05-14T16:01:24.507Z,0.65
2023-05-14T16:04:26.292Z,0.70
2023-05-14T16:07:49.827Z,0.70
2023-05-14T16:10:51.505Z,0.88
2023-05-14T16:13:53.281Z,0.80
2023-05-14T16:16:55.373Z,0.55
2023-05-14T16:19:57.283Z,0.80
2023-05-14T16:23:00.341Z,0.70
2023-05-14T16:26:02.144Z,0.80
2023-05-14T16:29:04.214Z,0.73
2023-05-14T16:32:06.290Z,1.00
2023-05-14T16:35:08.957Z,0.93
2023-05-14T16:38:12.238Z,0.80
2023-05-14T16:41:15.063Z,0.65
2023-05-14T16:44:16.802Z,1.10
2023-05-14T16:47:18.541Z,0.73
2023-05-14T16:50:20.983Z,0.80
2023-05-14T16:53:24.136Z,0.90
2023-05-14T16:56:26.536Z,0.80
2023-05-14T16:59:28.588Z,0.82
2023-05-14T17:02:30.530Z,0.93
2023-05-14T17:05:32.274Z,0.70
2023-05-14T17:08:35.681Z,0.85
2023-05-14T17:11:37.530Z,0.70
2023-05-14T17:14:39.191Z,0.82
2023-05-14T17:17:40.958Z,0.70
2023-05-14T17:20:42.623Z,0.80
2023-05-14T17:23:46.021Z,0.60
2023-05-14T17:26:47.737Z,0.73
2023-05-14T17:29:51.204Z,0.80
2023-05-14T17:32:52.918Z,1.00
2023-05-14T17:35:54.646Z,0.73
2023-05-14T17:38:58.235Z,0.88
2023-05-14T17:42:00.295Z,0.85
2023-05-14T17:45:02.056Z,0.70
2023-05-14T17:48:04.094Z,0.90
2023-05-14T17:51:05.853Z,0.82
2023-05-14T17:54:08.924Z,0.90
2023-05-14T17:57:10.711Z,0.90
2023-05-14T18:00:13.189Z,0.90
2023-05-14T18:03:15.092Z,1.08
2023-05-14T18:06:16.971Z,1.52
2023-05-14T18:09:20.158Z,1.58
2023-05-14T18:12:21.879Z,1.10
2023-05-14T18:15:25.668Z,1.30
2023-05-14T18:18:27.866Z,4.30
2023-05-14T18:21:29.910Z,1.33
2023-05-14T18:24:32.897Z,1.20
2023-05-14T18:27:35.085Z,1.20
2023-05-14T18:30:36.853Z,1.13
2023-05-14T18:33:38.701Z,1.10
2023-05-14T18:36:41.006Z,1.00
2023-05-14T18:39:43.949Z,1.00
2023-05-14T18:42:45.654Z,0.90
2023-05-14T18:45:48.215Z,0.88
2023-05-14T18:48:50.471Z,0.73
2023-05-14T18:51:52.232Z,0.65
2023-05-14T18:54:55.460Z,0.95
2023-05-14T18:57:57.537Z,0.93
2023-05-14T19:00:59.306Z,0.55
2023-05-14T19:04:03.133Z,0.70
2023-05-14T19:07:06.764Z,0.55
2023-05-14T19:10:11.020Z,0.80
2023-05-14T19:13:12.798Z,0.60
2023-05-14T19:16:14.712Z,0.60
2023-05-14T19:19:16.611Z,0.70
2023-05-14T19:22:19.437Z,0.70
2023-05-14T19:25:22.422Z,0.95
2023-05-14T19:28:24.305Z,0.63
2023-05-14T19:31:26.648Z,0.80
2023-05-14T19:34:28.422Z,0.60
2023-05-14T19:37:30.419Z,0.65
2023-05-14T19:40:33.615Z,0.70
2023-05-14T19:43:35.489Z,0.60
2023-05-14T19:46:37.169Z,0.88
2023-05-14T19:49:39.059Z,0.70
2023-05-14T19:52:40.726Z,0.57
2023-05-14T19:55:44.105Z,0.93
2023-05-14T19:58:45.968Z,0.80
2023-05-14T20:01:47.917Z,0.80
2023-05-14T20:04:49.784Z,0.50
2023-05-14T20:07:51.540Z,0.70
2023-05-14T20:10:54.623Z,0.70
2023-05-14T20:13:56.386Z,0.77
2023-05-14T20:16:59.863Z,0.63
2023-05-14T20:20:01.710Z,0.73
2023-05-14T20:23:03.585Z,0.90
2023-05-14T20:26:06.688Z,0.73
2023-05-14T20:29:10.888Z,0.68
2023-05-14T20:32:13.111Z,0.70
2023-05-14T20:35:14.970Z,0.73
2023-05-14T20:38:18.334Z,0.82
2023-05-14T20:41:22.910Z,0.80
2023-05-14T20:44:24.873Z,0.75
2023-05-14T20:47:28.800Z,0.88
2023-05-14T20:50:30.760Z,0.80
2023-05-14T20:53:33.266Z,0.90
2023-05-14T20:56:36.545Z,0.73
2023-05-14T20:59:38.595Z,0.95
2023-05-14T21:02:40.610Z,0.70
2023-05-14T21:05:43.767Z,0.85
2023-05-14T21:08:45.559Z,0.73
2023-05-14T21:11:49.142Z,0.60
2023-05-14T21:14:50.884Z,0.70
2023-05-14T21:17:52.673Z,0.73
2023-05-14T21:20:54.428Z,0.85
2023-05-14T21:23:56.195Z,0.85
2023-05-14T21:27:00.547Z,0.70
2023-05-14T21:30:02.353Z,0.80
2023-05-14T21:33:04.168Z,0.70
2023-05-14T21:36:07.220Z,0.80
2023-05-14T21:39:10.402Z,0.70
2023-05-14T21:42:13.712Z,0.98
2023-05-14T21:45:15.730Z,0.60
2023-05-14T21:48:17.807Z,0.90
2023-05-14T21:51:19.590Z,0.90
2023-05-14T21:54:21.512Z,0.93
2023-05-14T21:57:26.182Z,0.90
2023-05-14T22:00:29.101Z,0.70
2023-05-14T22:03:30.812Z,0.82
2023-05-14T22:06:32.548Z,0.90
2023-05-14T22:09:34.606Z,0.90
2023-05-14T22:12:37.635Z,0.82
2023-05-14T22:15:39.554Z,0.98
2023-05-14T22:18:41.624Z,0.60
2023-05-14T22:21:43.319Z,0.70
2023-05-14T22:24:45.056Z,1.00
2023-05-14T22:27:48.132Z,0.68
2023-05-14T22:30:49.912Z,0.90
2023-05-14T22:33:52.084Z,1.00
2023-05-14T22:36:53.870Z,0.95
2023-05-14T22:39:55.654Z,0.80
2023-05-14T22:42:58.600Z,0.82
2023-05-14T22:46:00.466Z,0.80
2023-05-14T22:49:02.226Z,0.73
2023-05-14T22:52:04.422Z,1.00
2023-05-14T22:55:07.384Z,0.90
2023-05-14T22:58:10.616Z,0.90
2023-05-14T23:01:12.380Z,0.85
2023-05-14T23:04:14.207Z,0.90
2023-05-14T23:07:16.817Z,1.02
2023-05-14T23:10:18.590Z,1.08
2023-05-14T23:13:21.667Z,1.10
2023-05-14T23:16:23.340Z,0.70
2023-05-14T23:19:26.430Z,1.00
2023-05-14T23:22:28.133Z,0.90
2023-05-14T23:25:29.890Z,0.70
2023-05-14T23:28:32.955Z,0.90
2023-05-14T23:31:35.315Z,0.80
2023-05-14T23:34:37.142Z,0.80
2023-05-14T23:37:42.588Z,1.02
2023-05-14T23:40:44.306Z,0.93
2023-05-14T23:43:48.785Z,1.08
2023-05-14T23:46:50.791Z,0.80
2023-05-14T23:49:52.736Z,0.80
2023-05-14T23:52:55.024Z,0.77
2023-05-14T23:55:56.905Z,0.88
2023-05-14T23:59:00.055Z,0.77
